sensor_id;sensor_type;location;lat;lon;timestamp;P1;durP1;ratioP1;P2;durP2;ratioP2
82410;SDS011;72054;55.772;49.096;2023-08-12T00:00:23;14.00;;;5.35;;
82410;SDS011;72054;55.772;49.096;2023-08-12T00:01:23;11.15;;;5.63;;
82410;SDS011;72054;55.772;49.096;2023-08-12T00:03:25;9.75;;;5.53;;
82410;SDS011;72054;55.772;49.096;2023-08-12T00:04:25;13.38;;;5.95;;
82410;SDS011;72054;55.772;49.096;2023-08-12T00:05:26;10.50;;;5.95;;
82410;SDS011;72054;55.772;49.096;2023-08-12T00:06:26;15.70;;;6.93;;
82410;SDS011;72054;55.772;49.096;2023-08-12T00:07:28;11.45;;;5.88;;
82410;SDS011;72054;55.772;49.096;2023-08-12T00:08:28;12.68;;;5.63;;
82410;SDS011;72054;55.772;49.096;2023-08-12T00:09:29;18.33;;;7.05;;
82410;SDS011;72054;55.772;49.096;2023-08-12T00:10:29;13.05;;;6.40;;
82410;SDS011;72054;55.772;49.096;2023-08-12T00:11:30;15.75;;;6.65;;
82410;SDS011;72054;55.772;49.096;2023-08-12T00:12:33;12.93;;;6.72;;
82410;SDS011;72054;55.772;49.096;2023-08-12T00:13:35;15.75;;;6.35;;
82410;SDS011;72054;55.772;49.096;2023-08-12T00:14:35;11.63;;;6.53;;
82410;SDS011;72054;55.772;49.096;2023-08-12T00:15:36;12.10;;;5.75;;
82410;SDS011;72054;55.772;49.096;2023-08-12T00:16:36;11.18;;;5.90;;
82410;SDS011;72054;55.772;49.096;2023-08-12T00:17:37;11.05;;;6.15;;
82410;SDS011;72054;55.772;49.096;2023-08-12T00:18:37;12.48;;;6.13;;
82410;SDS011;72054;55.772;49.096;2023-08-12T00:19:38;16.15;;;6.68;;
82410;SDS011;72054;55.772;49.096;2023-08-12T00:20:38;11.85;;;6.50;;
82410;SDS011;72054;55.772;49.096;2023-08-12T00:21:39;11.88;;;5.80;;
82410;SDS011;72054;55.772;49.096;2023-08-12T00:22:40;10.48;;;6.15;;
82410;SDS011;72054;55.772;49.096;2023-08-12T00:23:40;11.52;;;6.35;;
82410;SDS011;72054;55.772;49.096;2023-08-12T00:24:41;17.17;;;7.93;;
82410;SDS011;72054;55.772;49.096;2023-08-12T00:25:42;12.60;;;6.80;;
82410;SDS011;72054;55.772;49.096;2023-08-12T00:26:42;15.32;;;7.55;;
82410;SDS011;72054;55.772;49.096;2023-08-12T00:27:43;16.75;;;6.72;;
82410;SDS011;72054;55.772;49.096;2023-08-12T00:28:43;14.85;;;7.25;;
82410;SDS011;72054;55.772;49.096;2023-08-12T00:29:44;14.88;;;7.10;;
82410;SDS011;72054;55.772;49.096;2023-08-12T00:30:47;13.80;;;6.95;;
82410;SDS011;72054;55.772;49.096;2023-08-12T00:31:49;11.35;;;6.50;;
82410;SDS011;72054;55.772;49.096;2023-08-12T00:32:49;12.68;;;6.97;;
82410;SDS011;72054;55.772;49.096;2023-08-12T00:33:50;12.10;;;7.00;;
82410;SDS011;72054;55.772;49.096;2023-08-12T00:34:50;12.38;;;6.53;;
82410;SDS011;72054;55.772;49.096;2023-08-12T00:35:51;11.27;;;5.80;;
82410;SDS011;72054;55.772;49.096;2023-08-12T00:36:51;14.10;;;6.80;;
82410;SDS011;72054;55.772;49.096;2023-08-12T00:37:52;11.48;;;7.13;;
82410;SDS011;72054;55.772;49.096;2023-08-12T00:38:52;12.15;;;6.72;;
82410;SDS011;72054;55.772;49.096;2023-08-12T00:39:53;11.90;;;6.15;;
82410;SDS011;72054;55.772;49.096;2023-08-12T00:40:53;13.02;;;5.80;;
82410;SDS011;72054;55.772;49.096;2023-08-12T00:41:54;10.10;;;6.10;;
82410;SDS011;72054;55.772;49.096;2023-08-12T00:42:54;13.15;;;6.10;;
82410;SDS011;72054;55.772;49.096;2023-08-12T00:43:55;14.35;;;6.47;;
82410;SDS011;72054;55.772;49.096;2023-08-12T00:45:57;9.98;;;5.47;;
82410;SDS011;72054;55.772;49.096;2023-08-12T00:46:57;13.45;;;6.35;;
82410;SDS011;72054;55.772;49.096;2023-08-12T00:47:58;16.23;;;7.50;;
82410;SDS011;72054;55.772;49.096;2023-08-12T00:48:59;11.77;;;5.97;;
82410;SDS011;72054;55.772;49.096;2023-08-12T00:49:59;16.17;;;6.72;;
82410;SDS011;72054;55.772;49.096;2023-08-12T00:51:00;11.65;;;6.22;;
82410;SDS011;72054;55.772;49.096;2023-08-12T00:52:01;10.75;;;6.13;;
82410;SDS011;72054;55.772;49.096;2023-08-12T00:53:02;16.95;;;7.05;;
82410;SDS011;72054;55.772;49.096;2023-08-12T00:54:04;12.90;;;6.28;;
82410;SDS011;72054;55.772;49.096;2023-08-12T00:55:05;13.88;;;6.82;;
82410;SDS011;72054;55.772;49.096;2023-08-12T00:56:06;13.93;;;6.80;;
82410;SDS011;72054;55.772;49.096;2023-08-12T00:57:07;14.85;;;6.50;;
82410;SDS011;72054;55.772;49.096;2023-08-12T00:58:08;14.75;;;6.47;;
82410;SDS011;72054;55.772;49.096;2023-08-12T00:59:09;10.93;;;6.40;;
82410;SDS011;72054;55.772;49.096;2023-08-12T01:00:10;10.70;;;6.00;;
82410;SDS011;72054;55.772;49.096;2023-08-12T01:01:12;12.68;;;6.82;;
82410;SDS011;72054;55.772;49.096;2023-08-12T01:02:13;14.52;;;6.63;;
82410;SDS011;72054;55.772;49.096;2023-08-12T01:03:14;19.92;;;6.53;;
82410;SDS011;72054;55.772;49.096;2023-08-12T01:04:14;15.90;;;7.25;;
82410;SDS011;72054;55.772;49.096;2023-08-12T01:05:15;14.05;;;7.00;;
82410;SDS011;72054;55.772;49.096;2023-08-12T01:06:16;13.30;;;6.57;;
82410;SDS011;72054;55.772;49.096;2023-08-12T01:07:16;13.65;;;6.53;;
82410;SDS011;72054;55.772;49.096;2023-08-12T01:08:17;14.07;;;6.65;;
82410;SDS011;72054;55.772;49.096;2023-08-12T01:09:17;14.85;;;7.05;;
82410;SDS011;72054;55.772;49.096;2023-08-12T01:10:19;12.07;;;7.13;;
82410;SDS011;72054;55.772;49.096;2023-08-12T01:12:55;10.60;;;5.68;;
82410;SDS011;72054;55.772;49.096;2023-08-12T01:14:14;11.65;;;5.95;;
82410;SDS011;72054;55.772;49.096;2023-08-12T01:15:22;12.85;;;6.18;;
82410;SDS011;72054;55.772;49.096;2023-08-12T01:16:25;14.45;;;7.25;;
82410;SDS011;72054;55.772;49.096;2023-08-12T01:17:29;14.80;;;7.13;;
82410;SDS011;72054;55.772;49.096;2023-08-12T01:19:34;14.90;;;7.47;;
82410;SDS011;72054;55.772;49.096;2023-08-12T01:20:36;14.68;;;7.63;;
82410;SDS011;72054;55.772;49.096;2023-08-12T01:21:39;13.70;;;6.22;;
82410;SDS011;72054;55.772;49.096;2023-08-12T01:22:44;14.90;;;7.80;;
82410;SDS011;72054;55.772;49.096;2023-08-12T01:23:46;13.52;;;6.90;;
82410;SDS011;72054;55.772;49.096;2023-08-12T01:24:46;21.33;;;8.18;;
82410;SDS011;72054;55.772;49.096;2023-08-12T01:25:47;14.18;;;7.25;;
82410;SDS011;72054;55.772;49.096;2023-08-12T01:26:47;12.85;;;7.15;;
82410;SDS011;72054;55.772;49.096;2023-08-12T01:27:48;12.13;;;7.45;;
82410;SDS011;72054;55.772;49.096;2023-08-12T01:28:48;15.07;;;7.35;;
82410;SDS011;72054;55.772;49.096;2023-08-12T01:29:49;15.02;;;7.45;;
82410;SDS011;72054;55.772;49.096;2023-08-12T01:30:55;14.38;;;7.05;;
82410;SDS011;72054;55.772;49.096;2023-08-12T01:32:12;17.42;;;7.43;;
82410;SDS011;72054;55.772;49.096;2023-08-12T01:33:32;14.98;;;6.78;;
82410;SDS011;72054;55.772;49.096;2023-08-12T01:36:15;16.15;;;7.18;;
82410;SDS011;72054;55.772;49.096;2023-08-12T01:37:20;13.70;;;6.97;;
82410;SDS011;72054;55.772;49.096;2023-08-12T01:38:25;12.50;;;7.38;;
82410;SDS011;72054;55.772;49.096;2023-08-12T01:39:27;15.18;;;7.30;;
82410;SDS011;72054;55.772;49.096;2023-08-12T01:40:29;11.73;;;6.70;;
82410;SDS011;72054;55.772;49.096;2023-08-12T01:41:32;14.80;;;6.32;;
82410;SDS011;72054;55.772;49.096;2023-08-12T01:42:33;13.27;;;6.32;;
82410;SDS011;72054;55.772;49.096;2023-08-12T01:43:34;9.85;;;6.47;;
82410;SDS011;72054;55.772;49.096;2023-08-12T01:44:35;14.48;;;6.68;;
82410;SDS011;72054;55.772;49.096;2023-08-12T01:45:35;13.23;;;5.85;;
82410;SDS011;72054;55.772;49.096;2023-08-12T01:46:36;11.57;;;5.85;;
82410;SDS011;72054;55.772;49.096;2023-08-12T01:47:36;10.25;;;6.30;;
82410;SDS011;72054;55.772;49.096;2023-08-12T01:48:37;14.30;;;6.20;;
82410;SDS011;72054;55.772;49.096;2023-08-12T01:49:38;9.85;;;5.90;;
82410;SDS011;72054;55.772;49.096;2023-08-12T01:50:38;12.13;;;6.20;;
82410;SDS011;72054;55.772;49.096;2023-08-12T01:51:39;12.55;;;6.75;;
82410;SDS011;72054;55.772;49.096;2023-08-12T01:52:39;17.05;;;6.20;;
82410;SDS011;72054;55.772;49.096;2023-08-12T01:53:40;11.18;;;5.85;;
82410;SDS011;72054;55.772;49.096;2023-08-12T01:54:40;12.63;;;5.18;;
82410;SDS011;72054;55.772;49.096;2023-08-12T01:55:44;10.02;;;5.15;;
82410;SDS011;72054;55.772;49.096;2023-08-12T01:56:44;8.60;;;4.75;;
82410;SDS011;72054;55.772;49.096;2023-08-12T01:57:45;9.68;;;5.18;;
82410;SDS011;72054;55.772;49.096;2023-08-12T01:58:45;11.45;;;5.72;;
82410;SDS011;72054;55.772;49.096;2023-08-12T01:59:46;11.20;;;4.88;;
82410;SDS011;72054;55.772;49.096;2023-08-12T02:00:46;10.65;;;4.95;;
82410;SDS011;72054;55.772;49.096;2023-08-12T02:01:47;12.38;;;5.65;;
82410;SDS011;72054;55.772;49.096;2023-08-12T02:02:47;11.70;;;5.57;;
82410;SDS011;72054;55.772;49.096;2023-08-12T02:03:48;10.00;;;4.97;;
82410;SDS011;72054;55.772;49.096;2023-08-12T02:04:48;11.05;;;4.22;;
82410;SDS011;72054;55.772;49.096;2023-08-12T02:05:49;9.38;;;4.30;;
82410;SDS011;72054;55.772;49.096;2023-08-12T02:06:49;8.98;;;4.70;;
82410;SDS011;72054;55.772;49.096;2023-08-12T02:07:50;6.70;;;4.88;;
82410;SDS011;72054;55.772;49.096;2023-08-12T02:08:51;9.68;;;4.35;;
82410;SDS011;72054;55.772;49.096;2023-08-12T02:09:51;12.55;;;4.88;;
82410;SDS011;72054;55.772;49.096;2023-08-12T02:10:52;9.35;;;4.38;;
82410;SDS011;72054;55.772;49.096;2023-08-12T02:11:52;12.77;;;5.07;;
82410;SDS011;72054;55.772;49.096;2023-08-12T02:12:53;9.77;;;4.78;;
82410;SDS011;72054;55.772;49.096;2023-08-12T02:13:53;9.80;;;4.85;;
82410;SDS011;72054;55.772;49.096;2023-08-12T02:14:54;7.68;;;4.68;;
82410;SDS011;72054;55.772;49.096;2023-08-12T02:15:54;7.38;;;4.38;;
82410;SDS011;72054;55.772;49.096;2023-08-12T02:16:55;11.18;;;4.90;;
82410;SDS011;72054;55.772;49.096;2023-08-12T02:17:55;9.45;;;4.18;;
82410;SDS011;72054;55.772;49.096;2023-08-12T02:18:56;8.23;;;4.20;;
82410;SDS011;72054;55.772;49.096;2023-08-12T02:19:57;11.13;;;5.03;;
82410;SDS011;72054;55.772;49.096;2023-08-12T02:20:57;10.25;;;5.18;;
82410;SDS011;72054;55.772;49.096;2023-08-12T02:21:58;12.02;;;5.00;;
82410;SDS011;72054;55.772;49.096;2023-08-12T02:22:59;10.15;;;5.35;;
82410;SDS011;72054;55.772;49.096;2023-08-12T02:23:59;7.32;;;4.40;;
82410;SDS011;72054;55.772;49.096;2023-08-12T02:24:59;7.85;;;4.78;;
82410;SDS011;72054;55.772;49.096;2023-08-12T02:26:00;9.90;;;4.55;;
82410;SDS011;72054;55.772;49.096;2023-08-12T02:27:02;8.70;;;4.45;;
82410;SDS011;72054;55.772;49.096;2023-08-12T02:28:03;10.02;;;4.82;;
82410;SDS011;72054;55.772;49.096;2023-08-12T02:29:04;8.35;;;4.53;;
82410;SDS011;72054;55.772;49.096;2023-08-12T02:30:05;10.73;;;5.38;;
82410;SDS011;72054;55.772;49.096;2023-08-12T02:32:06;9.65;;;4.60;;
82410;SDS011;72054;55.772;49.096;2023-08-12T02:33:07;9.77;;;5.22;;
82410;SDS011;72054;55.772;49.096;2023-08-12T02:34:07;8.40;;;4.72;;
82410;SDS011;72054;55.772;49.096;2023-08-12T02:35:08;12.38;;;5.70;;
82410;SDS011;72054;55.772;49.096;2023-08-12T02:36:09;8.77;;;5.43;;
82410;SDS011;72054;55.772;49.096;2023-08-12T02:37:09;9.55;;;5.82;;
82410;SDS011;72054;55.772;49.096;2023-08-12T02:38:10;9.00;;;5.43;;
82410;SDS011;72054;55.772;49.096;2023-08-12T02:39:11;11.32;;;6.10;;
82410;SDS011;72054;55.772;49.096;2023-08-12T02:40:12;12.07;;;6.22;;
82410;SDS011;72054;55.772;49.096;2023-08-12T02:41:12;11.90;;;5.93;;
82410;SDS011;72054;55.772;49.096;2023-08-12T02:42:13;9.90;;;5.72;;
82410;SDS011;72054;55.772;49.096;2023-08-12T02:43:13;10.43;;;6.32;;
82410;SDS011;72054;55.772;49.096;2023-08-12T02:44:14;11.05;;;6.22;;
82410;SDS011;72054;55.772;49.096;2023-08-12T02:45:15;11.15;;;6.40;;
82410;SDS011;72054;55.772;49.096;2023-08-12T02:46:15;11.82;;;6.55;;
82410;SDS011;72054;55.772;49.096;2023-08-12T02:47:16;9.68;;;6.72;;
82410;SDS011;72054;55.772;49.096;2023-08-12T02:48:16;9.63;;;7.03;;
82410;SDS011;72054;55.772;49.096;2023-08-12T02:49:17;9.93;;;6.53;;
82410;SDS011;72054;55.772;49.096;2023-08-12T02:50:17;11.23;;;6.00;;
82410;SDS011;72054;55.772;49.096;2023-08-12T02:51:18;8.85;;;6.40;;
82410;SDS011;72054;55.772;49.096;2023-08-12T02:52:18;7.55;;;6.15;;
82410;SDS011;72054;55.772;49.096;2023-08-12T02:53:19;8.88;;;5.22;;
82410;SDS011;72054;55.772;49.096;2023-08-12T02:54:19;9.55;;;5.97;;
82410;SDS011;72054;55.772;49.096;2023-08-12T02:56:20;10.98;;;5.85;;
82410;SDS011;72054;55.772;49.096;2023-08-12T02:58:21;12.18;;;6.57;;
82410;SDS011;72054;55.772;49.096;2023-08-12T02:59:21;10.73;;;5.78;;
82410;SDS011;72054;55.772;49.096;2023-08-12T03:00:22;11.27;;;6.75;;
82410;SDS011;72054;55.772;49.096;2023-08-12T03:01:22;16.55;;;6.22;;
82410;SDS011;72054;55.772;49.096;2023-08-12T03:02:23;9.18;;;7.18;;
82410;SDS011;72054;55.772;49.096;2023-08-12T03:03:23;11.25;;;6.72;;
82410;SDS011;72054;55.772;49.096;2023-08-12T03:05:24;8.93;;;5.55;;
82410;SDS011;72054;55.772;49.096;2023-08-12T03:06:25;12.00;;;7.05;;
82410;SDS011;72054;55.772;49.096;2023-08-12T03:07:25;8.32;;;5.32;;
82410;SDS011;72054;55.772;49.096;2023-08-12T03:08:26;9.57;;;5.82;;
82410;SDS011;72054;55.772;49.096;2023-08-12T03:09:29;7.38;;;5.22;;
82410;SDS011;72054;55.772;49.096;2023-08-12T03:11:30;10.35;;;6.18;;
82410;SDS011;72054;55.772;49.096;2023-08-12T03:12:31;9.38;;;5.82;;
82410;SDS011;72054;55.772;49.096;2023-08-12T03:13:31;9.02;;;5.82;;
82410;SDS011;72054;55.772;49.096;2023-08-12T03:14:32;9.63;;;5.78;;
82410;SDS011;72054;55.772;49.096;2023-08-12T03:15:32;9.02;;;6.13;;
82410;SDS011;72054;55.772;49.096;2023-08-12T03:17:33;10.20;;;5.40;;
82410;SDS011;72054;55.772;49.096;2023-08-12T03:18:34;8.05;;;5.88;;
82410;SDS011;72054;55.772;49.096;2023-08-12T03:19:34;8.65;;;5.80;;
82410;SDS011;72054;55.772;49.096;2023-08-12T03:20:35;8.07;;;5.57;;
82410;SDS011;72054;55.772;49.096;2023-08-12T03:21:37;8.80;;;5.65;;
82410;SDS011;72054;55.772;49.096;2023-08-12T03:23:38;8.35;;;5.55;;
82410;SDS011;72054;55.772;49.096;2023-08-12T03:24:38;7.80;;;6.63;;
82410;SDS011;72054;55.772;49.096;2023-08-12T03:26:39;8.15;;;7.35;;
82410;SDS011;72054;55.772;49.096;2023-08-12T03:28:40;8.07;;;6.32;;
82410;SDS011;72054;55.772;49.096;2023-08-12T03:30:41;7.25;;;6.10;;
82410;SDS011;72054;55.772;49.096;2023-08-12T03:31:41;6.90;;;5.90;;
82410;SDS011;72054;55.772;49.096;2023-08-12T03:33:42;6.65;;;6.00;;
82410;SDS011;72054;55.772;49.096;2023-08-12T03:35:47;7.85;;;6.43;;
82410;SDS011;72054;55.772;49.096;2023-08-12T03:36:48;7.57;;;6.85;;
82410;SDS011;72054;55.772;49.096;2023-08-12T03:37:50;8.07;;;7.28;;
82410;SDS011;72054;55.772;49.096;2023-08-12T03:38:52;7.88;;;7.18;;
82410;SDS011;72054;55.772;49.096;2023-08-12T03:40:53;7.70;;;7.00;;
82410;SDS011;72054;55.772;49.096;2023-08-12T03:41:53;8.27;;;7.55;;
82410;SDS011;72054;55.772;49.096;2023-08-12T03:43:54;8.20;;;7.45;;
82410;SDS011;72054;55.772;49.096;2023-08-12T03:45:56;9.32;;;8.63;;
82410;SDS011;72054;55.772;49.096;2023-08-12T03:47:57;10.02;;;9.15;;
82410;SDS011;72054;55.772;49.096;2023-08-12T03:48:57;10.30;;;9.48;;
82410;SDS011;72054;55.772;49.096;2023-08-12T03:50:58;9.70;;;8.68;;
82410;SDS011;72054;55.772;49.096;2023-08-12T03:52:59;11.10;;;10.25;;
82410;SDS011;72054;55.772;49.096;2023-08-12T03:55:00;8.65;;;7.90;;
82410;SDS011;72054;55.772;49.096;2023-08-12T03:57:00;13.32;;;12.43;;
82410;SDS011;72054;55.772;49.096;2023-08-12T03:59:01;13.43;;;12.50;;
82410;SDS011;72054;55.772;49.096;2023-08-12T04:01:04;14.10;;;12.82;;
82410;SDS011;72054;55.772;49.096;2023-08-12T04:03:04;10.43;;;9.35;;
82410;SDS011;72054;55.772;49.096;2023-08-12T04:05:06;14.13;;;13.05;;
82410;SDS011;72054;55.772;49.096;2023-08-12T04:07:07;16.50;;;15.32;;
82410;SDS011;72054;55.772;49.096;2023-08-12T04:08:08;15.98;;;14.88;;
82410;SDS011;72054;55.772;49.096;2023-08-12T04:10:09;16.17;;;15.05;;
82410;SDS011;72054;55.772;49.096;2023-08-12T04:12:10;15.38;;;14.20;;
82410;SDS011;72054;55.772;49.096;2023-08-12T04:14:12;11.75;;;10.77;;
82410;SDS011;72054;55.772;49.096;2023-08-12T04:15:13;13.68;;;12.52;;
82410;SDS011;72054;55.772;49.096;2023-08-12T04:17:14;15.57;;;14.45;;
82410;SDS011;72054;55.772;49.096;2023-08-12T04:19:14;14.57;;;13.57;;
82410;SDS011;72054;55.772;49.096;2023-08-12T04:21:15;16.00;;;14.63;;
82410;SDS011;72054;55.772;49.096;2023-08-12T04:23:17;12.68;;;11.65;;
82410;SDS011;72054;55.772;49.096;2023-08-12T04:24:17;18.55;;;17.23;;
82410;SDS011;72054;55.772;49.096;2023-08-12T04:25:18;22.00;;;20.63;;
82410;SDS011;72054;55.772;49.096;2023-08-12T04:27:18;14.38;;;13.20;;
82410;SDS011;72054;55.772;49.096;2023-08-12T04:29:19;18.25;;;16.98;;
82410;SDS011;72054;55.772;49.096;2023-08-12T04:31:21;22.65;;;21.10;;
82410;SDS011;72054;55.772;49.096;2023-08-12T04:32:21;15.50;;;14.30;;
82410;SDS011;72054;55.772;49.096;2023-08-12T04:34:23;24.35;;;22.77;;
82410;SDS011;72054;55.772;49.096;2023-08-12T04:35:23;18.33;;;16.85;;
82410;SDS011;72054;55.772;49.096;2023-08-12T04:36:24;26.42;;;24.58;;
82410;SDS011;72054;55.772;49.096;2023-08-12T04:38:26;27.92;;;26.00;;
82410;SDS011;72054;55.772;49.096;2023-08-12T04:39:27;23.17;;;21.33;;
82410;SDS011;72054;55.772;49.096;2023-08-12T04:40:27;24.90;;;22.52;;
82410;SDS011;72054;55.772;49.096;2023-08-12T04:41:28;24.20;;;22.38;;
82410;SDS011;72054;55.772;49.096;2023-08-12T04:42:30;26.33;;;24.33;;
82410;SDS011;72054;55.772;49.096;2023-08-12T04:43:30;31.25;;;29.40;;
82410;SDS011;72054;55.772;49.096;2023-08-12T04:45:31;31.98;;;29.98;;
82410;SDS011;72054;55.772;49.096;2023-08-12T04:46:32;21.98;;;19.92;;
82410;SDS011;72054;55.772;49.096;2023-08-12T04:47:32;20.08;;;18.27;;
82410;SDS011;72054;55.772;49.096;2023-08-12T04:48:33;34.95;;;32.65;;
82410;SDS011;72054;55.772;49.096;2023-08-12T04:49:33;32.72;;;30.58;;
82410;SDS011;72054;55.772;49.096;2023-08-12T04:51:34;24.65;;;22.67;;
82410;SDS011;72054;55.772;49.096;2023-08-12T04:52:35;41.10;;;38.42;;
82410;SDS011;72054;55.772;49.096;2023-08-12T04:54:36;24.30;;;22.08;;
82410;SDS011;72054;55.772;49.096;2023-08-12T04:56:38;25.13;;;23.15;;
82410;SDS011;72054;55.772;49.096;2023-08-12T04:57:38;38.95;;;36.13;;
82410;SDS011;72054;55.772;49.096;2023-08-12T04:58:39;30.75;;;28.00;;
82410;SDS011;72054;55.772;49.096;2023-08-12T04:59:40;32.92;;;30.17;;
82410;SDS011;72054;55.772;49.096;2023-08-12T05:00:40;24.00;;;22.13;;
82410;SDS011;72054;55.772;49.096;2023-08-12T05:02:41;26.02;;;23.73;;
82410;SDS011;72054;55.772;49.096;2023-08-12T05:03:42;31.95;;;29.83;;
82410;SDS011;72054;55.772;49.096;2023-08-12T05:04:42;39.22;;;36.47;;
82410;SDS011;72054;55.772;49.096;2023-08-12T05:05:43;32.72;;;30.65;;
82410;SDS011;72054;55.772;49.096;2023-08-12T05:07:43;42.45;;;39.45;;
82410;SDS011;72054;55.772;49.096;2023-08-12T05:08:48;30.20;;;28.05;;
82410;SDS011;72054;55.772;49.096;2023-08-12T05:09:49;36.50;;;34.35;;
82410;SDS011;72054;55.772;49.096;2023-08-12T05:10:49;47.95;;;44.60;;
82410;SDS011;72054;55.772;49.096;2023-08-12T05:12:50;51.00;;;46.47;;
82410;SDS011;72054;55.772;49.096;2023-08-12T05:13:52;61.33;;;56.83;;
82410;SDS011;72054;55.772;49.096;2023-08-12T05:14:52;33.47;;;30.48;;
82410;SDS011;72054;55.772;49.096;2023-08-12T05:15:53;32.97;;;30.08;;
82410;SDS011;72054;55.772;49.096;2023-08-12T05:17:54;51.60;;;49.58;;
82410;SDS011;72054;55.772;49.096;2023-08-12T05:19:55;60.30;;;57.58;;
82410;SDS011;72054;55.772;49.096;2023-08-12T05:20:55;35.67;;;33.90;;
82410;SDS011;72054;55.772;49.096;2023-08-12T05:21:57;32.75;;;31.20;;
82410;SDS011;72054;55.772;49.096;2023-08-12T05:22:57;55.97;;;53.08;;
82410;SDS011;72054;55.772;49.096;2023-08-12T05:23:58;55.08;;;52.35;;
82410;SDS011;72054;55.772;49.096;2023-08-12T05:24:58;57.92;;;55.80;;
82410;SDS011;72054;55.772;49.096;2023-08-12T05:25:59;62.42;;;59.47;;
82410;SDS011;72054;55.772;49.096;2023-08-12T05:26:59;40.50;;;37.78;;
82410;SDS011;72054;55.772;49.096;2023-08-12T05:28:00;37.25;;;35.53;;
82410;SDS011;72054;55.772;49.096;2023-08-12T05:29:00;57.53;;;55.38;;
82410;SDS011;72054;55.772;49.096;2023-08-12T05:30:01;55.55;;;53.33;;
82410;SDS011;72054;55.772;49.096;2023-08-12T05:31:01;58.95;;;56.83;;
82410;SDS011;72054;55.772;49.096;2023-08-12T05:32:02;41.85;;;40.17;;
82410;SDS011;72054;55.772;49.096;2023-08-12T05:33:02;57.15;;;54.88;;
82410;SDS011;72054;55.772;49.096;2023-08-12T05:34:03;34.17;;;32.67;;
82410;SDS011;72054;55.772;49.096;2023-08-12T05:35:04;31.17;;;29.67;;
82410;SDS011;72054;55.772;49.096;2023-08-12T05:36:05;52.53;;;50.50;;
82410;SDS011;72054;55.772;49.096;2023-08-12T05:38:06;45.22;;;43.20;;
82410;SDS011;72054;55.772;49.096;2023-08-12T05:39:06;27.08;;;25.83;;
82410;SDS011;72054;55.772;49.096;2023-08-12T05:41:11;27.58;;;26.27;;
82410;SDS011;72054;55.772;49.096;2023-08-12T05:42:12;43.65;;;41.72;;
82410;SDS011;72054;55.772;49.096;2023-08-12T05:43:12;33.08;;;31.48;;
82410;SDS011;72054;55.772;49.096;2023-08-12T05:44:13;30.50;;;28.88;;
82410;SDS011;72054;55.772;49.096;2023-08-12T05:46:14;28.08;;;26.63;;
82410;SDS011;72054;55.772;49.096;2023-08-12T05:48:15;40.03;;;38.03;;
82410;SDS011;72054;55.772;49.096;2023-08-12T05:49:16;29.45;;;28.05;;
82410;SDS011;72054;55.772;49.096;2023-08-12T05:50:16;46.72;;;44.47;;
82410;SDS011;72054;55.772;49.096;2023-08-12T05:51:17;48.38;;;46.38;;
82410;SDS011;72054;55.772;49.096;2023-08-12T05:52:17;44.80;;;43.03;;
82410;SDS011;72054;55.772;49.096;2023-08-12T05:53:18;37.80;;;36.20;;
82410;SDS011;72054;55.772;49.096;2023-08-12T05:54:18;40.15;;;38.38;;
82410;SDS011;72054;55.772;49.096;2023-08-12T05:55:19;47.35;;;45.42;;
82410;SDS011;72054;55.772;49.096;2023-08-12T05:56:19;43.25;;;41.45;;
82410;SDS011;72054;55.772;49.096;2023-08-12T05:58:20;31.58;;;30.17;;
82410;SDS011;72054;55.772;49.096;2023-08-12T06:00:21;25.38;;;24.02;;
82410;SDS011;72054;55.772;49.096;2023-08-12T06:01:22;34.78;;;33.08;;
82410;SDS011;72054;55.772;49.096;2023-08-12T06:02:22;27.27;;;25.67;;
82410;SDS011;72054;55.772;49.096;2023-08-12T06:03:25;24.00;;;22.60;;
82410;SDS011;72054;55.772;49.096;2023-08-12T06:04:25;26.00;;;24.63;;
82410;SDS011;72054;55.772;49.096;2023-08-12T06:05:26;22.75;;;21.63;;
82410;SDS011;72054;55.772;49.096;2023-08-12T06:06:26;41.42;;;39.58;;
82410;SDS011;72054;55.772;49.096;2023-08-12T06:07:27;44.50;;;42.53;;
82410;SDS011;72054;55.772;49.096;2023-08-12T06:08:27;48.63;;;46.35;;
82410;SDS011;72054;55.772;49.096;2023-08-12T06:09:28;30.63;;;29.20;;
82410;SDS011;72054;55.772;49.096;2023-08-12T06:10:28;52.92;;;50.63;;
82410;SDS011;72054;55.772;49.096;2023-08-12T06:11:29;44.53;;;42.75;;
82410;SDS011;72054;55.772;49.096;2023-08-12T06:12:29;34.58;;;32.85;;
82410;SDS011;72054;55.772;49.096;2023-08-12T06:13:30;54.97;;;52.92;;
82410;SDS011;72054;55.772;49.096;2023-08-12T06:14:30;46.58;;;44.38;;
82410;SDS011;72054;55.772;49.096;2023-08-12T06:15:31;32.00;;;30.52;;
82410;SDS011;72054;55.772;49.096;2023-08-12T06:16:32;29.88;;;28.35;;
82410;SDS011;72054;55.772;49.096;2023-08-12T06:17:32;33.42;;;31.90;;
82410;SDS011;72054;55.772;49.096;2023-08-12T06:18:33;51.42;;;49.33;;
82410;SDS011;72054;55.772;49.096;2023-08-12T06:19:33;42.05;;;40.30;;
82410;SDS011;72054;55.772;49.096;2023-08-12T06:20:34;45.88;;;43.95;;
82410;SDS011;72054;55.772;49.096;2023-08-12T06:21:34;46.13;;;44.13;;
82410;SDS011;72054;55.772;49.096;2023-08-12T06:22:35;55.05;;;52.83;;
82410;SDS011;72054;55.772;49.096;2023-08-12T06:23:36;49.53;;;47.58;;
82410;SDS011;72054;55.772;49.096;2023-08-12T06:24:36;36.15;;;34.60;;
82410;SDS011;72054;55.772;49.096;2023-08-12T06:25:37;32.92;;;31.52;;
82410;SDS011;72054;55.772;49.096;2023-08-12T06:26:37;51.17;;;49.25;;
82410;SDS011;72054;55.772;49.096;2023-08-12T06:27:38;36.95;;;35.42;;
82410;SDS011;72054;55.772;49.096;2023-08-12T06:28:38;33.35;;;31.85;;
82410;SDS011;72054;55.772;49.096;2023-08-12T06:29:39;33.22;;;31.75;;
82410;SDS011;72054;55.772;49.096;2023-08-12T06:30:39;29.58;;;28.17;;
82410;SDS011;72054;55.772;49.096;2023-08-12T06:31:40;40.83;;;39.03;;
82410;SDS011;72054;55.772;49.096;2023-08-12T06:32:40;26.92;;;25.60;;
82410;SDS011;72054;55.772;49.096;2023-08-12T06:33:41;29.02;;;27.25;;
82410;SDS011;72054;55.772;49.096;2023-08-12T06:34:41;48.70;;;46.53;;
82410;SDS011;72054;55.772;49.096;2023-08-12T06:36:42;39.00;;;37.15;;
82410;SDS011;72054;55.772;49.096;2023-08-12T06:37:43;29.27;;;27.98;;
82410;SDS011;72054;55.772;49.096;2023-08-12T06:38:43;29.63;;;28.27;;
82410;SDS011;72054;55.772;49.096;2023-08-12T06:39:44;34.67;;;33.17;;
82410;SDS011;72054;55.772;49.096;2023-08-12T06:41:45;58.75;;;56.25;;
82410;SDS011;72054;55.772;49.096;2023-08-12T06:42:45;31.65;;;30.15;;
82410;SDS011;72054;55.772;49.096;2023-08-12T06:43:46;35.45;;;33.38;;
82410;SDS011;72054;55.772;49.096;2023-08-12T06:44:49;32.08;;;30.27;;
82410;SDS011;72054;55.772;49.096;2023-08-12T06:45:55;58.30;;;56.00;;
82410;SDS011;72054;55.772;49.096;2023-08-12T06:46:55;59.35;;;57.08;;
82410;SDS011;72054;55.772;49.096;2023-08-12T06:47:56;53.63;;;51.50;;
82410;SDS011;72054;55.772;49.096;2023-08-12T06:48:57;53.40;;;51.38;;
82410;SDS011;72054;55.772;49.096;2023-08-12T06:49:58;54.58;;;52.58;;
82410;SDS011;72054;55.772;49.096;2023-08-12T06:50:59;30.92;;;29.35;;
82410;SDS011;72054;55.772;49.096;2023-08-12T06:51:59;60.45;;;58.15;;
82410;SDS011;72054;55.772;49.096;2023-08-12T06:53:00;56.10;;;53.92;;
82410;SDS011;72054;55.772;49.096;2023-08-12T06:54:00;62.42;;;59.95;;
82410;SDS011;72054;55.772;49.096;2023-08-12T06:55:01;46.33;;;44.15;;
82410;SDS011;72054;55.772;49.096;2023-08-12T06:56:01;60.90;;;58.45;;